Main page
METAR-TAF:

METAR-TAF

Airports :

N'Djamena International Airport

N'Djamena, Chad

latitude: 12-08N, longitude: 015-02E, elevation: 295 m

Current weather observation

The report was made 1 hour and 7 minutes ago, at 16:00 UTC
Wind 5 kt from the North/Northeast
Temperature 37°C
Humidity 13%
Pressure 1006 hPa
Visibility: 8000 m

METAR: FTTJ 181600Z 02005KT 8000 NSC 37/04 Q1006 NOSIG

Time: 18:07 (17:07 UTC)

Forecast

The report was made 6 hours and 7 minutes ago, at 11:00 UTC
Forecast valid from 18 at 12 UTC to 19 at 18 UTC
Wind 6 kt from the East
Visibility: 8000 m

TAF: FTTJ 181100Z 1812/1918 08006KT 8000 NSC

Weather observations and forecasts of more than 4000 airports (METAR and TAF reports).

The available stations are represented by yellow and red dots on the map.

Hover mouse over dot to see the name of the station.

Then click to see weather observations and forecasts.

To change the map : click on the green buttons with a black cross to zoom in, on the green button with a dash to zoom out, or on the green arrows for adjacent maps.


METAR-TAF: